Commander — VJN3976 — position and weather

sailwx.info

Track history (hours):
 
Tides and Currents Weather Stations Pressure Air Temp Water Temp Dewpoint Dewpoint Depression Visibility Wind Speed Wind Dir Waves Ship Positions

Commander

Last reported at 2017-Nov-30 22:59 UTC. Time now 2017-Dec-12 12:35 UTC.
Position S 27°38' E 153°20'.
Warning: this ship's position is 11 days out of date.

Length 18 m.

Type: Pleasure craft. MMSI: 503668200.

Date/timePositionNaut miles runAvg speedWind from/ knotsBaromVisibWave heightAir tempDewpointWater temp
2017-Nov-30 22:59S 27°38' E 153°20'3 5.8
2017-Nov-30 22:30S 27°40' E 153°22'3 5.8
2017-Nov-30 22:00S 27°43' E 153°22'3 5.6
2017-Nov-30 21:30S 27°45' E 153°21'3 5.6
2017-Nov-30 21:00S 27°47' E 153°24'3 5.5
2017-Nov-30 20:30S 27°50' E 153°24'4 0.4
2017-Nov-30 09:16S 27°54' E 153°25'0 0.0
2017-Nov-30 08:49S 27°54' E 153°25'0 0.0
2017-Nov-30 08:25S 27°54' E 153°25'0 0.0
2017-Nov-30 07:25S 27°54' E 153°25'0 0.0
2017-Nov-30 06:46S 27°54' E 153°25'0 0.0
2017-Nov-30 06:22S 27°54' E 153°25'0 0.0
2017-Nov-30 05:37S 27°54' E 153°25'0 0.0
2017-Nov-30 05:22S 27°54' E 153°25'0 0.0
2017-Nov-30 04:55S 27°54' E 153°25'0 0.0
2017-Nov-30 04:27S 27°54' E 153°25'2 5.0
2017-Nov-30 04:00S 27°52' E 153°25'1 3.0
2017-Nov-30 03:30S 27°52' E 153°23'  
Track history (hours):
 
Tides and Currents Weather Stations Pressure Air Temp Water Temp Dewpoint Dewpoint Depression Visibility Wind Speed Wind Dir Waves Ship Positions

Commander

Last reported at 2017-Nov-30 22:59 UTC. Time now 2017-Dec-12 12:35 UTC.
Position S 27°38' E 153°20'.
Warning: this ship's position is 11 days out of date.

Length 18 m.

Type: Pleasure craft. MMSI: 503668200.

Date/timePositionNaut miles runAvg speedWind from/ knotsBaromVisibWave heightAir tempDewpointWater temp
2017-Nov-30 22:59S 27°38' E 153°20'3 5.8
2017-Nov-30 22:30S 27°40' E 153°22'3 5.8
2017-Nov-30 22:00S 27°43' E 153°22'3 5.6
2017-Nov-30 21:30S 27°45' E 153°21'3 5.6
2017-Nov-30 21:00S 27°47' E 153°24'3 5.5
2017-Nov-30 20:30S 27°50' E 153°24'4 0.4
2017-Nov-30 09:16S 27°54' E 153°25'0 0.0
2017-Nov-30 08:49S 27°54' E 153°25'0 0.0
2017-Nov-30 08:25S 27°54' E 153°25'0 0.0
2017-Nov-30 07:25S 27°54' E 153°25'0 0.0
2017-Nov-30 06:46S 27°54' E 153°25'0 0.0
2017-Nov-30 06:22S 27°54' E 153°25'0 0.0
2017-Nov-30 05:37S 27°54' E 153°25'0 0.0
2017-Nov-30 05:22S 27°54' E 153°25'0 0.0
2017-Nov-30 04:55S 27°54' E 153°25'0 0.0
2017-Nov-30 04:27S 27°54' E 153°25'2 5.0
2017-Nov-30 04:00S 27°52' E 153°25'1 3.0
2017-Nov-30 03:30S 27°52' E 153°23'  

Dump ship's entire track history